KEUG/EUG METAR and TAF weather

Enter ICAO airport designator
Station Type Date Time Source
KEUG METAR 2020/02/26 09:54 UTC NOAA

KEUG 260954Z AUTO 19004KT 10SM OVC049 04/03 A3045 RMK AO2 SLP314 T00390028


Station Type Date Time Source
KEUG Decoded METAR 2020/02/26 09:54 UTC NOAA

MAHLON SWEET FIELD, OR, United States (KEUG) 44-08N 123-13W 114M
Feb 26, 2020 - 04:54 AM EST / 2020.02.26 0954 UTC
Wind: from the S (190 degrees) at 5 MPH (4 KT):0
Visibility: 10 mile(s):0
Sky conditions: overcast
Temperature: 39.0 F (3.9 C)
Dew Point: 37.0 F (2.8 C)
Relative Humidity: 92%
Pressure (altimeter): 30.45 in. Hg (1031 hPa)
ob: KEUG 260954Z AUTO 19004KT 10SM OVC049 04/03 A3045 RMK AO2 SLP314 T00390028
cycle: 10

Station Type Date Time Source
KEUG TAF 2020/02/26 06:30 UTC NOAA

TAF KEUG 260527Z 2606/2706 VRB03KT P6SM BKN120
FM260900 21003KT P6SM BKN070 OVC100
FM261200 19004KT P6SM SCT030 OVC045
FM262000 30004KT P6SM BKN050
FM262300 35008KT P6SM SCT050

Example: see airport list